Time;durP1;ratioP1;P1;durP2;ratioP2;P2;SDS_P1;SDS_P2;PMS_P1;PMS_P2;Temp;Humidity;BMP_temperature;BMP_pressure;BME280_temperature;BME280_humidity;BME280_pressure;Samples;Min_cycle;Max_cycle;Signal;HPM_P1;HPM_P2
2023/03/06 00:02:15;;;;;;;3.45;0.80;;;2.90;99.90;;;;;;5064650;28;20036;-71
2023/03/06 00:04:41;;;;;;;3.33;0.82;;;2.90;99.90;;;;;;5046358;28;20044;-72
2023/03/06 00:07:06;;;;;;;4.45;0.80;;;3.50;99.90;;;;;;5021570;28;20039;-71
2023/03/06 00:09:32;;;;;;;2.45;1.00;;;3.10;99.90;;;;;;5066536;28;20548;-71
2023/03/06 00:11:58;;;;;;;6.03;1.63;;;2.70;99.90;;;;;;5046143;28;20044;-71
2023/03/06 00:14:24;;;;;;;1.00;0.57;;;3.00;99.90;;;;;;5044490;28;20424;-71
2023/03/06 00:16:53;;;;;;;4.47;1.15;;;2.40;99.90;;;;;;5063225;28;20055;-71
2023/03/06 00:19:18;;;;;;;3.55;0.82;;;2.60;99.90;;;;;;5061901;28;20095;-71
2023/03/06 00:21:44;;;;;;;3.03;0.63;;;2.30;99.90;;;;;;5063030;28;20068;-72
2023/03/06 00:24:10;;;;;;;0.63;0.50;;;2.30;99.90;;;;;;5055160;28;20090;-71
2023/03/06 00:26:35;;;;;;;2.97;0.70;;;2.30;99.90;;;;;;5044679;28;20478;-71
2023/03/06 00:29:04;;;;;;;3.35;0.70;;;2.40;99.90;;;;;;5044301;28;20098;-72
2023/03/06 00:31:30;;;;;;;3.80;0.98;;;2.40;99.90;;;;;;5028905;28;20052;-71
2023/03/06 00:33:55;;;;;;;1.38;0.68;;;2.40;99.90;;;;;;5033699;28;20529;-72
2023/03/06 00:36:21;;;;;;;2.17;0.63;;;2.40;99.90;;;;;;5054633;28;20063;-71
2023/03/06 00:38:47;;;;;;;4.45;0.70;;;2.50;99.90;;;;;;5069526;28;20047;-71
2023/03/06 00:41:13;;;;;;;3.15;0.90;;;2.50;99.90;;;;;;5040338;28;20765;-71
2023/03/06 00:43:38;;;;;;;3.05;0.80;;;2.90;99.90;;;;;;5063655;28;20063;-70
2023/03/06 00:46:04;;;;;;;3.78;1.08;;;2.50;99.90;;;;;;5046943;28;20044;-71
2023/03/06 00:48:33;;;;;;;3.65;0.90;;;2.50;99.90;;;;;;5064292;28;20048;-71
2023/03/06 00:51:00;;;;;;;4.85;0.90;;;2.60;99.90;;;;;;5061789;28;20493;-71
2023/03/06 00:53:25;;;;;;;4.28;0.80;;;2.70;99.90;;;;;;5061294;28;20127;-72
2023/03/06 00:55:51;;;;;;;5.00;0.80;;;2.60;99.90;;;;;;5041961;28;20408;-71
2023/03/06 00:58:17;;;;;;;4.40;1.25;;;3.20;99.90;;;;;;5063661;28;20047;-72
2023/03/06 01:00:43;;;;;;;3.67;1.10;;;2.60;99.90;;;;;;5068839;28;20123;-73
2023/03/06 01:03:10;;;;;;;4.90;0.98;;;2.60;99.90;;;;;;5065142;28;20040;-71
2023/03/06 01:05:36;;;;;;;4.75;0.93;;;2.60;99.90;;;;;;5062701;28;20462;-71
2023/03/06 01:08:03;;;;;;;3.55;0.90;;;3.40;99.90;;;;;;5047980;28;20028;-72
2023/03/06 01:10:28;;;;;;;5.82;1.20;;;2.60;99.90;;;;;;5059518;28;20853;-72
2023/03/06 01:12:54;;;;;;;6.57;1.20;;;2.60;99.90;;;;;;5063455;28;20044;-72
2023/03/06 01:15:21;;;;;;;5.25;1.10;;;2.60;99.90;;;;;;5037784;28;20369;-72
2023/03/06 01:17:47;;;;;;;6.80;1.85;;;2.60;99.90;;;;;;5059730;28;20461;-71
2023/03/06 01:20:15;;;;;;;4.90;1.30;;;3.10;99.90;;;;;;5058934;28;20259;-71
2023/03/06 01:22:41;;;;;;;9.20;1.30;;;2.70;99.90;;;;;;5043816;28;20075;-71
2023/03/06 01:25:07;;;;;;;3.85;1.48;;;2.60;99.90;;;;;;5063369;28;20068;-71
2023/03/06 01:27:33;;;;;;;5.70;1.30;;;2.70;99.90;;;;;;5061659;28;20057;-71
2023/03/06 01:29:59;;;;;;;4.70;1.20;;;2.70;99.90;;;;;;5062217;28;20063;-71
2023/03/06 01:32:25;;;;;;;5.28;1.10;;;2.70;99.90;;;;;;5042538;28;20045;-71
2023/03/06 01:34:50;;;;;;;3.70;1.23;;;2.70;99.90;;;;;;5050698;28;20036;-71
2023/03/06 01:37:16;;;;;;;2.78;1.20;;;2.70;99.90;;;;;;5030545;28;20072;-71
2023/03/06 01:39:42;;;;;;;5.25;1.38;;;2.70;99.90;;;;;;5038609;28;20040;-71
2023/03/06 01:42:08;;;;;;;7.90;1.95;;;2.70;99.90;;;;;;5039515;28;20063;-71
2023/03/06 01:44:33;;;;;;;5.13;1.63;;;2.70;99.90;;;;;;5037814;28;20136;-71
2023/03/06 01:47:01;;;;;;;2.80;1.02;;;2.80;99.90;;;;;;5040024;28;20040;-71
2023/03/06 01:49:34;;;;;;;3.72;1.00;;;2.70;99.90;;;;;;5049653;28;20045;-71
2023/03/06 01:52:13;;;;;;;5.63;1.98;;;2.70;99.90;;;;;;5044921;28;20546;-72
2023/03/06 01:54:55;;;;;;;3.78;1.10;;;2.80;99.90;;;;;;5046208;28;20048;-72
2023/03/06 01:57:21;;;;;;;;;;;2.80;99.90;;;;;;5065214;28;20769;-72
2023/03/06 01:59:52;;;;;;;4.80;1.10;;;2.80;99.90;;;;;;5049525;28;19971;-72
2023/03/06 02:02:18;;;;;;;;;;;3.60;99.90;;;;;;5061786;28;20056;-72
2023/03/06 02:04:45;;;;;;;4.60;1.10;;;2.80;99.90;;;;;;5059982;28;19924;-72
2023/03/06 02:07:12;;;;;;;3.38;1.23;;;2.70;99.90;;;;;;5044227;28;20045;-72
2023/03/06 02:09:38;;;;;;;4.03;1.27;;;2.80;99.90;;;;;;5059890;28;20044;-72
2023/03/06 02:12:09;;;;;;;4.55;1.17;;;2.70;99.90;;;;;;5044628;28;20052;-72
2023/03/06 02:14:36;;;;;;;2.67;1.10;;;2.70;99.90;;;;;;5030989;28;20056;-71
2023/03/06 02:17:03;;;;;;;4.93;1.45;;;2.70;99.90;;;;;;5058547;28;20701;-71
2023/03/06 02:19:46;;;;;;;5.43;1.20;;;3.00;99.90;;;;;;5040402;28;20067;-71
2023/03/06 02:22:12;;;;;;;2.78;1.02;;;2.70;99.90;;;;;;5048805;28;20052;-71
2023/03/06 02:24:58;;;;;;;4.63;1.05;;;2.60;99.90;;;;;;5041474;28;20275;-71
2023/03/06 02:27:25;;;;;;;4.22;0.70;;;2.80;99.90;;;;;;5006278;28;20048;-71
2023/03/06 02:29:51;;;;;;;1.10;0.60;;;2.60;99.90;;;;;;5041059;28;20444;-72
2023/03/06 02:32:17;;;;;;;1.95;0.80;;;2.80;99.90;;;;;;5043825;28;20044;-71
2023/03/06 02:34:51;;;;;;;2.08;0.80;;;2.40;99.90;;;;;;5043419;28;20032;-72
2023/03/06 02:37:16;;;;;;;2.20;0.95;;;2.40;99.90;;;;;;5043713;28;20044;-70
2023/03/06 02:39:47;;;;;;;1.63;0.70;;;2.30;99.90;;;;;;5060707;28;20103;-71
2023/03/06 02:42:21;;;;;;;1.77;0.70;;;2.40;99.90;;;;;;5030820;28;20465;-70
2023/03/06 02:44:48;;;;;;;2.95;0.93;;;2.20;99.90;;;;;;5050529;28;20059;-70
2023/03/06 02:47:14;;;;;;;2.45;0.90;;;2.30;99.90;;;;;;5055368;28;20160;-71
2023/03/06 02:49:39;;;;;;;2.60;0.90;;;2.20;99.90;;;;;;5034947;28;20044;-71
2023/03/06 02:52:06;;;;;;;3.40;1.00;;;2.10;99.90;;;;;;5042904;28;20052;-70
2023/03/06 02:54:32;;;;;;;1.88;0.75;;;2.10;99.90;;;;;;5066198;28;20033;-70
2023/03/06 02:56:58;;;;;;;1.52;0.80;;;2.10;99.90;;;;;;5027693;28;20042;-70
2023/03/06 02:59:24;;;;;;;2.03;0.88;;;2.00;99.90;;;;;;5035225;28;20055;-71
2023/03/06 03:01:49;;;;;;;1.38;0.70;;;2.00;99.90;;;;;;5042803;28;20135;-70
2023/03/06 03:04:15;;;;;;;1.67;0.75;;;2.20;99.90;;;;;;5049222;28;20397;-70
2023/03/06 03:06:41;;;;;;;2.03;0.80;;;1.90;99.90;;;;;;5027696;28;20488;-71
2023/03/06 03:09:06;;;;;;;0.88;0.70;;;1.90;99.90;;;;;;5057704;28;20077;-70
2023/03/06 03:11:32;;;;;;;1.58;0.65;;;1.80;99.90;;;;;;5058552;28;20131;-70
2023/03/06 03:13:58;;;;;;;1.75;0.80;;;1.90;99.90;;;;;;5070251;28;20036;-70
2023/03/06 03:16:23;;;;;;;1.25;0.80;;;1.80;99.90;;;;;;5041123;28;20468;-70
2023/03/06 03:18:52;;;;;;;2.25;0.88;;;1.80;99.90;;;;;;5062905;28;20037;-71
2023/03/06 03:21:18;;;;;;;1.85;0.75;;;1.80;99.90;;;;;;5045843;28;20084;-70
2023/03/06 03:23:44;;;;;;;2.17;1.05;;;1.80;99.90;;;;;;5058510;28;20403;-70
2023/03/06 03:26:17;;;;;;;1.50;0.70;;;1.80;99.90;;;;;;5059840;28;20410;-70
2023/03/06 03:28:43;;;;;;;2.13;0.80;;;1.80;99.90;;;;;;5041861;28;20053;-71
2023/03/06 03:31:11;;;;;;;2.33;0.98;;;1.80;99.90;;;;;;5046025;28;20414;-70
2023/03/06 03:33:38;;;;;;;3.35;0.88;;;1.80;99.90;;;;;;5037558;28;20053;-70
2023/03/06 03:36:05;;;;;;;2.60;0.80;;;1.70;99.90;;;;;;5028622;28;20413;-70
2023/03/06 03:38:33;;;;;;;1.48;0.70;;;1.70;99.90;;;;;;5045023;28;20048;-70
2023/03/06 03:41:02;;;;;;;2.47;0.70;;;1.70;99.90;;;;;;5023593;28;20049;-70
2023/03/06 03:43:28;;;;;;;3.42;0.90;;;1.70;99.90;;;;;;5046624;28;20053;-70
2023/03/06 03:45:54;;;;;;;2.22;1.00;;;1.70;99.90;;;;;;5045204;28;20055;-70
2023/03/06 03:48:20;;;;;;;1.90;0.82;;;2.70;99.90;;;;;;5037950;28;20041;-70
2023/03/06 03:50:46;;;;;;;1.83;0.80;;;1.70;99.90;;;;;;5041984;28;20064;-70
2023/03/06 03:53:11;;;;;;;3.20;0.82;;;1.60;99.90;;;;;;5022958;28;20120;-70
2023/03/06 03:55:37;;;;;;;1.40;0.80;;;1.60;99.90;;;;;;5042553;28;20075;-70
2023/03/06 03:58:04;;;;;;;1.98;0.90;;;1.60;99.90;;;;;;5045875;28;20048;-70
2023/03/06 04:00:30;;;;;;;2.30;0.80;;;1.60;99.90;;;;;;5049375;28;20156;-70
2023/03/06 04:02:56;;;;;;;1.70;0.70;;;1.60;99.90;;;;;;5038723;28;20044;-70
2023/03/06 04:05:22;;;;;;;1.65;0.80;;;1.70;99.90;;;;;;5041164;28;20041;-70
2023/03/06 04:07:47;;;;;;;1.55;0.80;;;2.10;99.90;;;;;;5038241;28;20102;-70
2023/03/06 04:10:13;;;;;;;1.65;0.70;;;1.60;99.90;;;;;;5038790;28;20174;-70
2023/03/06 04:12:39;;;;;;;3.30;1.15;;;1.60;99.90;;;;;;5039581;28;20049;-70
2023/03/06 04:15:06;;;;;;;3.20;0.85;;;1.60;99.90;;;;;;5054256;28;20060;-70
2023/03/06 04:17:34;;;;;;;2.28;0.88;;;1.60;99.90;;;;;;5034290;28;20041;-71
2023/03/06 04:20:00;;;;;;;1.98;0.90;;;1.60;99.90;;;;;;5037009;28;20573;-70
2023/03/06 04:22:27;;;;;;;3.00;0.90;;;1.60;99.90;;;;;;5039624;28;20068;-70
2023/03/06 04:24:52;;;;;;;0.95;0.75;;;1.50;99.90;;;;;;5047074;28;20060;-70
2023/03/06 04:27:18;;;;;;;1.60;0.90;;;1.60;99.90;;;;;;5047452;28;20048;-70
2023/03/06 04:29:44;;;;;;;3.17;0.93;;;1.50;99.90;;;;;;5050230;28;20223;-70
2023/03/06 04:32:10;;;;;;;2.13;1.13;;;1.50;99.90;;;;;;5041216;28;20054;-70
2023/03/06 04:34:35;;;;;;;1.88;0.90;;;1.50;99.90;;;;;;5047008;28;20846;-70
2023/03/06 04:37:04;;;;;;;1.65;0.90;;;1.50;99.90;;;;;;5036969;28;20517;-70
2023/03/06 04:39:30;;;;;;;2.55;0.80;;;1.50;99.90;;;;;;5035233;28;20056;-71
2023/03/06 04:41:56;;;;;;;2.40;1.00;;;1.40;99.90;;;;;;5050932;28;20033;-70
2023/03/06 04:44:21;;;;;;;3.70;1.00;;;1.50;99.90;;;;;;5041829;28;20044;-70
2023/03/06 04:46:47;;;;;;;2.15;0.90;;;1.40;99.90;;;;;;5040981;28;20140;-70
2023/03/06 04:49:13;;;;;;;3.80;1.05;;;2.10;99.90;;;;;;5041039;28;20044;-70
2023/03/06 04:51:38;;;;;;;1.35;0.82;;;1.40;99.90;;;;;;5045013;28;20126;-70
2023/03/06 04:54:04;;;;;;;2.75;0.93;;;1.40;99.90;;;;;;5037956;28;20041;-70
2023/03/06 04:56:30;;;;;;;2.28;1.10;;;1.40;99.90;;;;;;5038113;28;20076;-70
2023/03/06 04:58:56;;;;;;;2.28;1.05;;;1.70;99.90;;;;;;5023218;28;20045;-71
2023/03/06 05:01:21;;;;;;;2.53;1.00;;;1.40;99.90;;;;;;5045211;28;20041;-70
2023/03/06 05:03:48;;;;;;;4.00;1.45;;;1.40;99.90;;;;;;5043467;28;20041;-70
2023/03/06 05:06:14;;;;;;;2.70;1.00;;;1.40;99.90;;;;;;5040203;28;20045;-70
2023/03/06 05:08:40;;;;;;;2.35;0.95;;;1.70;99.90;;;;;;5039683;28;20059;-70
2023/03/06 05:11:06;;;;;;;4.47;1.38;;;1.40;99.90;;;;;;5042735;28;20049;-70
2023/03/06 05:13:35;;;;;;;1.50;0.80;;;1.40;99.90;;;;;;5044036;28;20414;-70
2023/03/06 05:16:05;;;;;;;2.10;1.33;;;1.40;99.90;;;;;;5042145;28;20546;-70
2023/03/06 05:18:34;;;;;;;2.20;1.00;;;1.30;99.90;;;;;;5041740;28;20413;-71
2023/03/06 05:21:00;;;;;;;3.58;1.25;;;1.40;99.90;;;;;;5044132;28;20048;-71
2023/03/06 05:23:31;;;;;;;2.72;1.30;;;1.40;99.90;;;;;;5037357;28;20081;-71
2023/03/06 05:25:57;;;;;;;5.68;1.60;;;1.40;99.90;;;;;;5041373;28;20061;-71
2023/03/06 05:28:27;;;;;;;6.90;2.05;;;1.40;99.90;;;;;;5059310;28;20079;-71
2023/03/06 05:30:53;;;;;;;9.32;2.13;;;2.10;99.90;;;;;;5045612;28;20117;-71
2023/03/06 05:33:18;;;;;;;7.85;2.97;;;1.60;99.90;;;;;;5042463;28;20037;-71
2023/03/06 05:35:48;;;;;;;7.28;2.53;;;1.90;99.90;;;;;;5050256;28;20054;-71
2023/03/06 05:38:15;;;;;;;7.05;2.00;;;1.50;99.90;;;;;;5053038;28;20043;-71
2023/03/06 05:40:42;;;;;;;6.28;2.47;;;1.80;99.90;;;;;;5071920;28;20052;-71
2023/03/06 05:43:10;;;;;;;7.60;2.95;;;1.30;99.90;;;;;;5062059;28;20051;-71
2023/03/06 05:45:37;;;;;;;10.77;3.70;;;1.30;99.90;;;;;;5012443;28;20129;-71
2023/03/06 05:48:03;;;;;;;8.25;2.75;;;1.30;99.90;;;;;;5060907;28;20040;-70
2023/03/06 05:50:28;;;;;;;10.48;2.90;;;1.30;99.90;;;;;;5042182;28;20063;-70
2023/03/06 05:52:54;;;;;;;7.38;2.85;;;1.90;99.90;;;;;;5058723;28;20039;-70
2023/03/06 05:55:21;;;;;;;6.88;2.70;;;1.20;99.90;;;;;;5030535;28;20040;-70
2023/03/06 05:57:47;;;;;;;8.35;2.85;;;1.20;99.90;;;;;;5038800;28;20047;-70
2023/03/06 06:00:14;;;;;;;8.25;2.92;;;1.20;99.90;;;;;;5051148;28;20434;-70
2023/03/06 06:02:41;;;;;;;6.95;3.13;;;1.20;99.90;;;;;;5042083;28;20037;-70
2023/03/06 06:05:07;;;;;;;7.88;3.40;;;1.30;99.90;;;;;;5037034;28;20175;-70
2023/03/06 06:07:33;;;;;;;8.52;3.50;;;1.10;99.90;;;;;;5026689;28;20163;-70
2023/03/06 06:09:58;;;;;;;7.15;3.22;;;1.10;99.90;;;;;;5033889;28;20047;-70
2023/03/06 06:12:26;;;;;;;10.07;4.03;;;1.10;99.90;;;;;;5029834;28;20078;-70
2023/03/06 06:14:51;;;;;;;12.75;3.83;;;1.00;99.90;;;;;;5046302;28;20051;-70
2023/03/06 06:17:18;;;;;;;7.90;3.08;;;1.00;99.90;;;;;;5025494;28;20044;-72
2023/03/06 06:19:43;;;;;;;9.43;3.40;;;1.00;99.90;;;;;;5034195;28;20150;-70
2023/03/06 06:22:09;;;;;;;5.78;2.83;;;1.30;99.90;;;;;;5049445;28;20071;-70
2023/03/06 06:24:35;;;;;;;8.55;3.58;;;1.10;99.90;;;;;;5043453;28;20063;-71
2023/03/06 06:27:01;;;;;;;9.18;3.20;;;1.40;99.90;;;;;;5021912;28;20045;-70
2023/03/06 06:29:28;;;;;;;7.47;3.00;;;1.00;99.90;;;;;;5018128;28;20106;-71
2023/03/06 06:31:54;;;;;;;8.95;3.40;;;1.00;99.90;;;;;;5030165;28;20065;-71
2023/03/06 06:34:21;;;;;;;5.18;2.20;;;1.00;99.90;;;;;;5030801;28;20082;-71
2023/03/06 06:36:47;;;;;;;8.32;2.65;;;1.00;99.90;;;;;;5025114;28;20044;-71
2023/03/06 06:39:16;;;;;;;5.93;2.58;;;1.40;99.90;;;;;;5036574;28;20050;-71
2023/03/06 06:41:42;;;;;;;8.00;2.33;;;1.10;99.90;;;;;;5031820;28;20044;-71
2023/03/06 06:44:13;;;;;;;6.63;2.60;;;0.90;99.90;;;;;;5053441;28;20743;-70
2023/03/06 06:46:39;;;;;;;4.80;2.05;;;1.00;99.90;;;;;;5039154;28;20548;-70
2023/03/06 06:49:05;;;;;;;5.20;2.25;;;1.30;99.90;;;;;;5036743;28;20036;-70
2023/03/06 06:51:32;;;;;;;5.03;2.03;;;0.90;99.90;;;;;;5032775;28;20118;-70
2023/03/06 06:53:58;;;;;;;4.85;2.28;;;0.90;99.90;;;;;;5035906;28;20131;-70
2023/03/06 06:56:25;;;;;;;4.15;1.77;;;0.90;99.90;;;;;;5055509;28;20040;-70
2023/03/06 06:58:52;;;;;;;7.45;2.50;;;0.90;99.90;;;;;;5054974;28;20051;-71
2023/03/06 07:01:18;;;;;;;4.68;1.73;;;0.90;99.90;;;;;;5055038;28;20788;-71
2023/03/06 07:03:43;;;;;;;5.65;2.17;;;1.00;99.90;;;;;;5056033;28;20121;-73
2023/03/06 07:06:09;;;;;;;5.75;1.98;;;1.40;99.90;;;;;;5039238;28;20147;-74
2023/03/06 07:08:35;;;;;;;6.13;2.08;;;1.70;99.90;;;;;;5056855;28;20037;-74
2023/03/06 07:11:08;;;;;;;4.55;2.20;;;1.00;99.90;;;;;;5035975;28;20091;-74
2023/03/06 07:13:34;;;;;;;4.80;2.17;;;1.00;99.90;;;;;;5052396;28;21873;-72
2023/03/06 07:15:59;;;;;;;5.07;2.05;;;1.20;99.90;;;;;;5056495;28;20036;-76
2023/03/06 07:18:25;;;;;;;4.93;2.25;;;1.30;99.90;;;;;;5032308;28;20048;-73
2023/03/06 07:20:52;;;;;;;6.72;2.15;;;1.00;99.90;;;;;;5041014;28;20182;-73
2023/03/06 07:23:18;;;;;;;6.28;2.13;;;1.10;99.90;;;;;;5040268;28;20041;-75
2023/03/06 07:25:44;;;;;;;6.03;2.10;;;1.20;99.90;;;;;;5055707;28;20198;-75
2023/03/06 07:28:10;;;;;;;5.05;2.38;;;1.10;99.90;;;;;;5048175;28;20550;-75
2023/03/06 07:30:36;;;;;;;3.95;1.90;;;1.20;99.90;;;;;;5036885;28;20084;-75
2023/03/06 07:33:01;;;;;;;4.18;1.73;;;2.10;99.90;;;;;;5037322;28;20044;-75
2023/03/06 07:35:28;;;;;;;5.53;2.17;;;1.60;99.90;;;;;;5037442;28;20509;-75
2023/03/06 07:37:56;;;;;;;3.05;1.65;;;1.40;99.90;;;;;;5033102;28;20057;-75
2023/03/06 07:40:22;;;;;;;5.20;2.15;;;1.50;99.90;;;;;;5032691;28;20037;-75
2023/03/06 07:42:48;;;;;;;4.97;1.90;;;1.50;99.90;;;;;;5031006;28;20252;-74
2023/03/06 07:45:14;;;;;;;4.93;1.73;;;1.60;99.90;;;;;;5015873;28;20045;-74
2023/03/06 07:47:40;;;;;;;6.38;2.28;;;2.00;99.90;;;;;;5031360;28;20156;-74
2023/03/06 07:50:06;;;;;;;5.82;2.42;;;1.70;99.90;;;;;;5026932;28;20561;-74
2023/03/06 07:52:33;;;;;;;5.15;2.20;;;1.80;99.90;;;;;;5049531;28;20045;-74
2023/03/06 07:54:59;;;;;;;4.68;2.00;;;1.90;99.90;;;;;;5036847;28;20136;-75
2023/03/06 07:57:24;;;;;;;3.75;1.95;;;1.90;99.90;;;;;;5036256;28;20047;-74
2023/03/06 07:59:50;;;;;;;3.85;1.50;;;2.10;99.90;;;;;;5038418;28;20037;-74
2023/03/06 08:02:16;;;;;;;3.75;1.60;;;2.20;99.90;;;;;;5038321;28;20033;-75
2023/03/06 08:04:41;;;;;;;3.53;1.50;;;2.30;99.90;;;;;;5035549;28;21498;-75
2023/03/06 08:07:07;;;;;;;6.47;1.52;;;2.40;99.90;;;;;;5036966;28;20517;-74
2023/03/06 08:09:34;;;;;;;2.58;1.23;;;2.60;99.90;;;;;;5037833;28;20056;-74
2023/03/06 08:12:00;;;;;;;2.08;1.17;;;2.60;99.90;;;;;;5035760;28;20124;-74
2023/03/06 08:14:25;;;;;;;3.35;1.25;;;2.80;99.90;;;;;;5036170;28;20521;-74
2023/03/06 08:16:54;;;;;;;5.25;1.20;;;2.90;99.90;;;;;;5036208;28;20076;-75
2023/03/06 08:19:20;;;;;;;3.28;1.20;;;3.00;99.90;;;;;;5039161;28;20087;-74
2023/03/06 08:21:46;;;;;;;4.22;1.38;;;3.10;99.90;;;;;;5040482;28;20052;-74
2023/03/06 08:24:15;;;;;;;3.42;1.27;;;3.10;99.90;;;;;;5035559;28;20044;-75
2023/03/06 08:26:41;;;;;;;5.47;1.70;;;3.20;99.90;;;;;;5038080;28;20045;-75
2023/03/06 08:29:09;;;;;;;4.18;1.50;;;3.20;99.90;;;;;;5058989;28;20485;-74
2023/03/06 08:31:41;;;;;;;3.97;1.50;;;3.30;99.90;;;;;;5058377;28;20059;-74
2023/03/06 08:34:16;;;;;;;4.90;1.50;;;3.30;99.90;;;;;;5058694;28;20036;-73
2023/03/06 08:36:41;;;;;;;4.53;1.40;;;3.40;99.90;;;;;;5059018;28;20087;-74
2023/03/06 08:39:08;;;;;;;5.03;1.38;;;3.40;99.90;;;;;;5058127;28;20143;-74
2023/03/06 08:41:34;;;;;;;5.03;1.40;;;3.50;99.90;;;;;;5034226;28;20075;-73
2023/03/06 08:44:00;;;;;;;3.78;1.60;;;3.50;99.90;;;;;;5035734;28;20048;-74
2023/03/06 08:46:28;;;;;;;4.25;1.60;;;3.60;99.90;;;;;;5040242;28;20060;-74
2023/03/06 08:48:54;;;;;;;4.00;1.33;;;3.60;99.90;;;;;;5021940;28;20622;-74
2023/03/06 08:51:20;;;;;;;6.50;1.50;;;4.00;99.90;;;;;;5023063;28;20047;-74
2023/03/06 08:53:46;;;;;;;6.50;1.77;;;3.90;99.90;;;;;;5015066;28;20082;-74
2023/03/06 08:56:18;;;;;;;7.35;1.77;;;4.00;99.90;;;;;;5054669;28;20052;-74
2023/03/06 08:58:44;;;;;;;;;;;4.10;99.90;;;;;;5020128;28;20052;-73
2023/03/06 09:01:22;;;;;;;4.95;1.60;;;4.20;99.90;;;;;;5038264;28;20381;-73
2023/03/06 09:03:48;;;;;;;4.43;1.55;;;4.20;99.90;;;;;;5056131;28;20921;-74
2023/03/06 09:06:14;;;;;;;3.65;1.13;;;4.30;99.90;;;;;;5055068;28;20044;-74
2023/03/06 09:08:42;;;;;;;4.15;1.33;;;4.30;99.90;;;;;;5054075;28;20037;-73
2023/03/06 09:11:10;;;;;;;7.28;0.98;;;4.30;99.90;;;;;;5041396;28;20059;-74
2023/03/06 09:13:35;;;;;;;5.70;1.63;;;4.40;99.90;;;;;;5053047;28;20055;-73
2023/03/06 09:16:01;;;;;;;6.10;1.48;;;4.40;99.90;;;;;;5025461;28;20036;-73
2023/03/06 09:18:28;;;;;;;4.35;0.90;;;4.40;99.90;;;;;;5056889;28;20048;-73
2023/03/06 09:20:54;;;;;;;3.35;1.30;;;4.50;99.90;;;;;;5039419;28;20044;-73
2023/03/06 09:23:20;;;;;;;6.55;0.90;;;4.50;99.90;;;;;;5040027;28;20060;-73
2023/03/06 09:25:52;;;;;;;3.70;0.80;;;4.50;99.90;;;;;;5060536;28;20539;-73
2023/03/06 09:28:17;;;;;;;6.10;1.10;;;4.70;99.90;;;;;;5038682;28;20045;-73
2023/03/06 09:30:43;;;;;;;4.57;1.02;;;4.60;99.90;;;;;;5040385;28;20151;-73
2023/03/06 09:33:09;;;;;;;3.30;0.70;;;5.00;99.90;;;;;;5058926;28;20082;-73
2023/03/06 09:35:35;;;;;;;4.25;0.82;;;4.60;99.90;;;;;;5025252;28;20535;-73
2023/03/06 09:38:01;;;;;;;2.88;0.70;;;4.50;99.90;;;;;;5054031;28;20044;-73
2023/03/06 09:40:57;;;;;;;3.05;0.77;;;4.60;99.90;;;;;;5050299;28;20639;-73
2023/03/06 09:43:40;;;;;;;8.07;0.95;;;4.60;99.90;;;;;;5024943;28;20055;-73
2023/03/06 09:46:41;;;;;;;5.13;1.00;;;4.60;99.90;;;;;;5029584;28;20045;-73
2023/03/06 09:49:28;;;;;;;6.45;1.23;;;4.70;99.90;;;;;;5045422;28;20041;-74
2023/03/06 09:52:06;;;;;;;2.25;0.47;;;4.70;99.90;;;;;;5032140;28;20041;-73
2023/03/06 09:54:52;;;;;;;3.25;0.65;;;4.70;99.90;;;;;;5030466;28;20555;-73
2023/03/06 09:57:31;;;;;;;2.88;0.68;;;4.90;99.90;;;;;;5054095;28;20044;-74
2023/03/06 10:00:06;;;;;;;3.60;0.47;;;4.80;99.90;;;;;;5050384;28;20051;-74
2023/03/06 10:02:40;;;;;;;3.47;0.50;;;4.80;99.90;;;;;;5019663;28;20436;-75
2023/03/06 10:05:27;;;;;;;3.30;0.40;;;5.20;99.90;;;;;;5038828;28;20508;-74
2023/03/06 10:08:02;;;;;;;11.70;0.93;;;4.90;99.90;;;;;;5053578;28;20083;-74
2023/03/06 10:10:49;;;;;;;3.72;0.65;;;4.90;99.90;;;;;;5020096;28;20067;-74
2023/03/06 10:13:19;;;;;;;2.67;0.77;;;4.80;99.90;;;;;;5036828;28;20127;-74
2023/03/06 10:15:46;;;;;;;8.82;1.15;;;4.80;99.90;;;;;;5051559;28;20079;-74
2023/03/06 10:18:12;;;;;;;3.38;0.52;;;4.80;99.90;;;;;;5054572;28;20076;-74
2023/03/06 10:20:57;;;;;;;4.38;0.80;;;4.80;99.90;;;;;;5033928;28;20090;-73
2023/03/06 10:23:37;;;;;;;4.95;0.77;;;4.80;99.90;;;;;;5037148;28;20113;-74
2023/03/06 10:26:23;;;;;;;3.97;0.90;;;4.90;99.90;;;;;;5043195;28;20668;-74
2023/03/06 10:29:13;;;;;;;1.55;0.63;;;4.90;99.90;;;;;;5035474;28;20085;-74
2023/03/06 10:31:43;;;;;;;4.80;0.50;;;5.10;99.90;;;;;;5006434;28;20401;-75
2023/03/06 10:34:27;;;;;;;3.20;0.60;;;5.00;99.90;;;;;;5035043;28;20056;-74
2023/03/06 10:36:53;;;;;;;7.15;0.80;;;5.00;99.90;;;;;;5055074;28;20071;-75
2023/03/06 10:39:21;;;;;;;3.40;0.70;;;4.90;99.90;;;;;;5040245;28;20037;-74
2023/03/06 10:41:48;;;;;;;9.15;1.20;;;5.00;99.90;;;;;;5035257;28;20040;-73
2023/03/06 10:44:14;;;;;;;3.22;0.70;;;5.00;99.90;;;;;;5035226;28;20098;-75
2023/03/06 10:46:42;;;;;;;6.25;0.75;;;5.00;99.90;;;;;;5051306;28;20484;-73
2023/03/06 10:49:30;;;;;;;2.00;0.60;;;5.00;99.90;;;;;;5032107;28;20129;-72
2023/03/06 10:52:08;;;;;;;4.65;0.80;;;5.10;99.90;;;;;;5050486;28;20044;-73
2023/03/06 10:54:40;;;;;;;5.38;0.88;;;5.00;99.90;;;;;;5033179;28;20076;-75
2023/03/06 10:57:28;;;;;;;5.13;0.70;;;5.10;99.90;;;;;;5052620;28;20053;-73
2023/03/06 11:00:03;;;;;;;1.85;0.45;;;5.00;99.90;;;;;;5036875;28;20429;-74
2023/03/06 11:02:39;;;;;;;2.90;0.52;;;5.00;99.90;;;;;;5040850;28;20075;-73
2023/03/06 11:05:17;;;;;;;6.07;0.75;;;5.00;99.90;;;;;;5056793;28;20048;-74
2023/03/06 11:07:55;;;;;;;6.80;0.70;;;5.00;99.90;;;;;;5035929;28;20132;-73
2023/03/06 11:10:22;;;;;;;3.08;0.60;;;5.10;99.90;;;;;;5024585;28;20066;-74
2023/03/06 11:13:00;;;;;;;5.50;0.80;;;5.40;99.90;;;;;;5038731;28;20045;-74
2023/03/06 11:15:29;;;;;;;5.75;0.90;;;5.20;99.90;;;;;;5034320;28;20161;-74
2023/03/06 11:17:54;;;;;;;5.22;0.98;;;5.70;99.90;;;;;;5049886;28;20036;-74
2023/03/06 11:20:44;;;;;;;3.95;0.68;;;5.30;99.90;;;;;;5034715;28;20075;-74
2023/03/06 11:23:28;;;;;;;2.53;0.70;;;5.40;99.90;;;;;;5049909;28;20143;-73
2023/03/06 11:26:15;;;;;;;2.53;0.70;;;5.60;99.90;;;;;;5032808;28;20076;-73
2023/03/06 11:29:05;;;;;;;4.45;0.90;;;5.70;99.90;;;;;;5051732;28;20056;-74
2023/03/06 11:31:38;;;;;;;4.18;1.08;;;5.70;99.90;;;;;;5043247;28;20684;-73
2023/03/06 11:34:17;;;;;;;5.82;0.93;;;5.70;99.90;;;;;;5060829;28;20048;-73
2023/03/06 11:37:00;;;;;;;6.43;0.82;;;5.70;99.90;;;;;;5040429;28;20044;-73
2023/03/06 11:39:42;;;;;;;8.63;0.70;;;5.60;99.90;;;;;;5058731;28;20037;-73
2023/03/06 11:42:32;;;;;;;3.65;0.70;;;5.60;99.90;;;;;;5038569;28;20040;-74
2023/03/06 11:45:30;;;;;;;6.10;0.98;;;5.50;99.90;;;;;;5033894;28;20416;-73
2023/03/06 11:48:15;;;;;;;5.00;0.90;;;5.40;99.90;;;;;;5042444;28;20071;-73
2023/03/06 11:50:48;;;;;;;3.22;0.77;;;5.40;99.90;;;;;;5061747;28;20469;-74
2023/03/06 11:53:18;;;;;;;7.97;0.80;;;5.30;99.90;;;;;;5057600;28;20131;-74
2023/03/06 11:56:18;;;;;;;4.47;1.15;;;5.30;99.90;;;;;;5059472;28;20523;-75
2023/03/06 11:59:29;;;;;;;4.47;0.65;;;5.30;99.90;;;;;;5059029;28;20055;-72
2023/03/06 12:01:59;;;;;;;5.53;0.80;;;5.30;99.90;;;;;;5056354;28;20112;-73
2023/03/06 12:04:37;;;;;;;2.42;0.50;;;5.30;99.90;;;;;;5057578;28;20072;-74
2023/03/06 12:07:34;;;;;;;2.80;0.68;;;5.30;99.90;;;;;;5058455;28;20701;-75
2023/03/06 12:10:47;;;;;;;2.55;0.60;;;5.40;99.90;;;;;;5059092;28;20139;-74
2023/03/06 12:13:18;;;;;;;2.00;0.63;;;5.40;99.90;;;;;;5020858;28;20052;-74
2023/03/06 12:15:59;;;;;;;1.40;0.70;;;5.50;99.90;;;;;;5040331;28;20137;-73
2023/03/06 12:18:39;;;;;;;4.45;0.50;;;5.60;99.90;;;;;;5031067;28;20036;-74
2023/03/06 12:21:26;;;;;;;4.10;0.50;;;5.60;99.90;;;;;;5040685;28;20044;-73
2023/03/06 12:24:11;;;;;;;1.42;0.60;;;5.70;99.90;;;;;;5060444;28;21105;-74
2023/03/06 12:26:45;;;;;;;4.88;0.70;;;5.70;99.90;;;;;;5040377;28;20063;-74
2023/03/06 12:29:29;;;;;;;3.05;0.47;;;5.70;99.90;;;;;;5021373;28;20052;-73
2023/03/06 12:32:20;;;;;;;4.25;0.57;;;5.80;99.90;;;;;;5058427;28;20044;-74
2023/03/06 12:34:55;;;;;;;5.90;0.95;;;5.70;99.90;;;;;;5024059;28;20059;-74
2023/03/06 12:37:54;;;;;;;6.85;1.10;;;5.70;99.90;;;;;;5058315;28;20139;-75
2023/03/06 12:40:28;;;;;;;5.13;0.70;;;5.70;99.90;;;;;;5057685;28;20658;-74
2023/03/06 12:43:21;;;;;;;4.95;0.80;;;5.80;99.90;;;;;;5034897;28;20041;-74
2023/03/06 12:45:50;;;;;;;4.43;0.60;;;5.80;99.90;;;;;;5052739;28;20075;-74
2023/03/06 12:48:26;;;;;;;1.95;0.50;;;5.80;99.90;;;;;;5039047;28;20071;-74
2023/03/06 12:50:53;;;;;;;1.40;0.30;;;5.80;99.90;;;;;;5057665;28;20075;-74
2023/03/06 12:53:30;;;;;;;3.30;0.63;;;5.80;99.90;;;;;;5042987;28;20636;-73
2023/03/06 12:55:59;;;;;;;1.83;0.50;;;5.90;99.90;;;;;;5045189;28;20106;-74
2023/03/06 12:58:28;;;;;;;3.00;0.63;;;5.90;99.90;;;;;;5061473;28;20054;-73
2023/03/06 13:01:04;;;;;;;3.88;0.75;;;5.90;99.90;;;;;;5040959;28;20056;-74
2023/03/06 13:04:00;;;;;;;5.68;0.80;;;5.90;99.90;;;;;;5038984;28;20101;-74
2023/03/06 13:06:47;;;;;;;1.92;0.52;;;6.00;99.90;;;;;;5022173;28;20490;-74
2023/03/06 13:09:31;;;;;;;1.20;0.40;;;6.10;99.90;;;;;;5054947;28;20040;-73
2023/03/06 13:12:04;;;;;;;6.82;0.60;;;6.00;99.90;;;;;;5020046;28;20041;-74
2023/03/06 13:14:36;;;;;;;4.82;0.60;;;6.00;99.90;;;;;;5029439;28;20056;-74